sensor_id;sensor_type;location;lat;lon;timestamp;pressure;altitude;pressure_sealevel;temperature;humidity
12781;BME280;6454;43.304;24.344;2023-05-03T00:01:32;100650.00;;;10.61;71.61
12781;BME280;6454;43.304;24.344;2023-05-03T00:04:01;100642.94;;;10.60;71.86
12781;BME280;6454;43.304;24.344;2023-05-03T00:06:28;100628.84;;;10.58;72.16
12781;BME280;6454;43.304;24.344;2023-05-03T00:08:55;100639.44;;;10.64;71.87
12781;BME280;6454;43.304;24.344;2023-05-03T00:11:22;100652.72;;;10.56;72.17
12781;BME280;6454;43.304;24.344;2023-05-03T00:13:49;100645.69;;;10.34;72.59
12781;BME280;6454;43.304;24.344;2023-05-03T00:16:16;100650.03;;;10.46;72.76
12781;BME280;6454;43.304;24.344;2023-05-03T00:18:43;100645.44;;;10.41;72.87
12781;BME280;6454;43.304;24.344;2023-05-03T00:21:11;100643.25;;;10.38;72.96
12781;BME280;6454;43.304;24.344;2023-05-03T00:23:37;100648.69;;;10.38;72.67
12781;BME280;6454;43.304;24.344;2023-05-03T00:26:04;100647.63;;;10.39;72.78
12781;BME280;6454;43.304;24.344;2023-05-03T00:28:31;100646.25;;;10.37;73.53
12781;BME280;6454;43.304;24.344;2023-05-03T00:31:05;100638.13;;;10.37;73.48
12781;BME280;6454;43.304;24.344;2023-05-03T00:33:32;100637.31;;;10.36;73.17
12781;BME280;6454;43.304;24.344;2023-05-03T00:36:06;100637.03;;;10.38;72.86
12781;BME280;6454;43.304;24.344;2023-05-03T00:38:34;100644.09;;;10.39;73.35
12781;BME280;6454;43.304;24.344;2023-05-03T00:41:01;100649.53;;;10.18;73.47
12781;BME280;6454;43.304;24.344;2023-05-03T00:43:29;100649.81;;;10.12;74.43
12781;BME280;6454;43.304;24.344;2023-05-03T00:45:57;100650.06;;;10.15;74.62
12781;BME280;6454;43.304;24.344;2023-05-03T00:48:24;100648.44;;;10.29;74.19
12781;BME280;6454;43.304;24.344;2023-05-03T00:50:52;100646.81;;;10.33;74.05
12781;BME280;6454;43.304;24.344;2023-05-03T00:53:20;100654.66;;;10.35;73.99
12781;BME280;6454;43.304;24.344;2023-05-03T00:55:51;100655.22;;;10.22;74.48
12781;BME280;6454;43.304;24.344;2023-05-03T00:58:18;100650.59;;;10.27;74.55
12781;BME280;6454;43.304;24.344;2023-05-03T01:00:46;100650.34;;;10.34;74.65
12781;BME280;6454;43.304;24.344;2023-05-03T01:03:13;100647.31;;;10.46;73.68
12781;BME280;6454;43.304;24.344;2023-05-03T01:05:49;100653.28;;;10.43;74.13
12781;BME280;6454;43.304;24.344;2023-05-03T01:08:23;100657.34;;;10.40;74.50
12781;BME280;6454;43.304;24.344;2023-05-03T01:11:00;100653.81;;;10.40;74.51
12781;BME280;6454;43.304;24.344;2023-05-03T01:13:35;100647.34;;;10.25;74.88
12781;BME280;6454;43.304;24.344;2023-05-03T01:16:08;100652.22;;;10.23;74.53
12781;BME280;6454;43.304;24.344;2023-05-03T01:18:39;100659.00;;;10.41;74.84
12781;BME280;6454;43.304;24.344;2023-05-03T01:21:09;100654.66;;;10.45;74.58
12781;BME280;6454;43.304;24.344;2023-05-03T01:23:41;100657.88;;;10.52;74.46
12781;BME280;6454;43.304;24.344;2023-05-03T01:26:19;100636.19;;;10.57;74.37
12781;BME280;6454;43.304;24.344;2023-05-03T01:28:47;100643.78;;;10.55;74.61
12781;BME280;6454;43.304;24.344;2023-05-03T01:31:18;100632.69;;;10.52;74.69
12781;BME280;6454;43.304;24.344;2023-05-03T01:33:53;100626.97;;;10.58;74.56
12781;BME280;6454;43.304;24.344;2023-05-03T01:36:25;100616.09;;;10.68;74.94
12781;BME280;6454;43.304;24.344;2023-05-03T01:38:57;100638.06;;;10.67;74.96
12781;BME280;6454;43.304;24.344;2023-05-03T01:41:25;100628.31;;;10.61;74.69
12781;BME280;6454;43.304;24.344;2023-05-03T01:43:54;100627.78;;;10.64;74.81
12781;BME280;6454;43.304;24.344;2023-05-03T01:46:21;100628.03;;;10.57;75.07
12781;BME280;6454;43.304;24.344;2023-05-03T01:48:48;100616.91;;;10.64;75.18
12781;BME280;6454;43.304;24.344;2023-05-03T01:51:15;100625.59;;;10.61;75.45
12781;BME280;6454;43.304;24.344;2023-05-03T01:53:42;100626.69;;;10.55;75.35
12781;BME280;6454;43.304;24.344;2023-05-03T01:56:08;100623.97;;;10.50;75.57
12781;BME280;6454;43.304;24.344;2023-05-03T01:58:36;100621.56;;;10.48;75.75
12781;BME280;6454;43.304;24.344;2023-05-03T02:01:03;100625.88;;;10.64;75.81
12781;BME280;6454;43.304;24.344;2023-05-03T02:03:32;100615.28;;;10.63;75.57
12781;BME280;6454;43.304;24.344;2023-05-03T02:05:59;100608.78;;;10.64;75.30
12781;BME280;6454;43.304;24.344;2023-05-03T02:08:26;100579.00;;;10.39;75.46
12781;BME280;6454;43.304;24.344;2023-05-03T02:10:52;100622.91;;;10.46;75.50
12781;BME280;6454;43.304;24.344;2023-05-03T02:13:19;100611.78;;;10.52;76.08
12781;BME280;6454;43.304;24.344;2023-05-03T02:15:47;100597.13;;;10.58;75.77
12781;BME280;6454;43.304;24.344;2023-05-03T02:18:14;100591.38;;;10.70;75.60
12781;BME280;6454;43.304;24.344;2023-05-03T02:20:44;100590.34;;;10.56;75.79
12781;BME280;6454;43.304;24.344;2023-05-03T02:23:11;100597.94;;;10.64;75.92
12781;BME280;6454;43.304;24.344;2023-05-03T02:25:38;100595.78;;;10.51;75.82
12781;BME280;6454;43.304;24.344;2023-05-03T02:28:05;100597.97;;;10.44;76.39
12781;BME280;6454;43.304;24.344;2023-05-03T02:30:33;100582.78;;;10.43;76.41
12781;BME280;6454;43.304;24.344;2023-05-03T02:33:01;100588.72;;;10.55;76.68
12781;BME280;6454;43.304;24.344;2023-05-03T02:35:28;100576.28;;;10.39;76.72
12781;BME280;6454;43.304;24.344;2023-05-03T02:37:55;100576.28;;;10.39;77.17
12781;BME280;6454;43.304;24.344;2023-05-03T02:40:22;100568.44;;;10.32;77.35
12781;BME280;6454;43.304;24.344;2023-05-03T02:42:49;100584.41;;;10.39;77.15
12781;BME280;6454;43.304;24.344;2023-05-03T02:45:16;100611.25;;;10.45;77.12
12781;BME280;6454;43.304;24.344;2023-05-03T02:47:42;100622.09;;;10.35;77.04
12781;BME280;6454;43.304;24.344;2023-05-03T02:50:11;100608.81;;;10.39;76.75
12781;BME280;6454;43.304;24.344;2023-05-03T02:52:38;100586.06;;;10.29;76.55
12781;BME280;6454;43.304;24.344;2023-05-03T02:55:05;100586.09;;;10.24;76.94
12781;BME280;6454;43.304;24.344;2023-05-03T02:57:32;100614.28;;;10.23;77.08
12781;BME280;6454;43.304;24.344;2023-05-03T02:59:59;100598.81;;;10.39;76.93
12781;BME280;6454;43.304;24.344;2023-05-03T03:02:25;100587.44;;;10.22;76.75
12781;BME280;6454;43.304;24.344;2023-05-03T03:04:52;100596.38;;;10.22;77.30
12781;BME280;6454;43.304;24.344;2023-05-03T03:07:20;100602.88;;;10.31;76.92
12781;BME280;6454;43.304;24.344;2023-05-03T03:09:47;100592.28;;;10.30;76.61
12781;BME280;6454;43.304;24.344;2023-05-03T03:12:14;100603.97;;;10.30;76.50
12781;BME280;6454;43.304;24.344;2023-05-03T03:14:41;100610.44;;;10.40;76.31
12781;BME280;6454;43.304;24.344;2023-05-03T03:17:10;100597.69;;;10.40;76.08
12781;BME280;6454;43.304;24.344;2023-05-03T03:19:37;100601.47;;;10.59;75.63
12781;BME280;6454;43.304;24.344;2023-05-03T03:22:04;100596.84;;;10.50;75.48
12781;BME280;6454;43.304;24.344;2023-05-03T03:24:32;100602.28;;;10.50;75.77
12781;BME280;6454;43.304;24.344;2023-05-03T03:26:59;100606.66;;;10.41;75.73
12781;BME280;6454;43.304;24.344;2023-05-03T03:29:28;100627.28;;;10.42;75.55
12781;BME280;6454;43.304;24.344;2023-05-03T03:31:55;100613.13;;;10.45;76.18
12781;BME280;6454;43.304;24.344;2023-05-03T03:34:22;100592.88;;;10.27;76.23
12781;BME280;6454;43.304;24.344;2023-05-03T03:36:48;100580.91;;;10.08;77.15
12781;BME280;6454;43.304;24.344;2023-05-03T03:39:15;100598.00;;;10.18;77.08
12781;BME280;6454;43.304;24.344;2023-05-03T03:41:43;100625.94;;;10.24;76.75
12781;BME280;6454;43.304;24.344;2023-05-03T03:44:10;100638.66;;;10.28;76.07
12781;BME280;6454;43.304;24.344;2023-05-03T03:46:37;100634.59;;;10.36;76.08
12781;BME280;6454;43.304;24.344;2023-05-03T03:49:04;100634.31;;;10.38;76.02
12781;BME280;6454;43.304;24.344;2023-05-03T03:51:30;100635.97;;;10.23;75.66
12781;BME280;6454;43.304;24.344;2023-05-03T03:53:57;100642.44;;;10.38;76.12
12781;BME280;6454;43.304;24.344;2023-05-03T03:56:24;100644.31;;;10.52;76.08
12781;BME280;6454;43.304;24.344;2023-05-03T03:58:52;100651.66;;;10.62;75.72
12781;BME280;6454;43.304;24.344;2023-05-03T04:01:19;100636.16;;;10.67;76.06
12781;BME280;6454;43.304;24.344;2023-05-03T04:03:46;100647.00;;;10.62;75.46
12781;BME280;6454;43.304;24.344;2023-05-03T04:06:13;100647.00;;;10.67;76.15
12781;BME280;6454;43.304;24.344;2023-05-03T04:08:39;100650.81;;;10.71;76.05
12781;BME280;6454;43.304;24.344;2023-05-03T04:11:09;100638.56;;;10.84;75.44
12781;BME280;6454;43.304;24.344;2023-05-03T04:13:36;100646.38;;;11.00;74.48
12781;BME280;6454;43.304;24.344;2023-05-03T04:16:05;100652.06;;;11.04;74.89
12781;BME280;6454;43.304;24.344;2023-05-03T04:18:32;100655.28;;;11.21;74.62
12781;BME280;6454;43.304;24.344;2023-05-03T04:20:59;100662.22;;;11.42;74.24
12781;BME280;6454;43.304;24.344;2023-05-03T04:23:26;100649.72;;;11.46;73.63
12781;BME280;6454;43.304;24.344;2023-05-03T04:25:52;100659.91;;;11.64;72.40
12781;BME280;6454;43.304;24.344;2023-05-03T04:28:21;100650.91;;;11.74;72.67
12781;BME280;6454;43.304;24.344;2023-05-03T04:30:50;100651.97;;;11.83;72.99
12781;BME280;6454;43.304;24.344;2023-05-03T04:33:19;100672.84;;;11.88;71.96
12781;BME280;6454;43.304;24.344;2023-05-03T04:35:48;100687.44;;;12.02;72.63
12781;BME280;6454;43.304;24.344;2023-05-03T04:38:15;100634.56;;;11.79;72.34
12781;BME280;6454;43.304;24.344;2023-05-03T04:40:42;100665.81;;;12.20;72.08
12781;BME280;6454;43.304;24.344;2023-05-03T04:43:12;100673.84;;;12.36;70.24
12781;BME280;6454;43.304;24.344;2023-05-03T04:45:39;100696.88;;;12.48;69.37
12781;BME280;6454;43.304;24.344;2023-05-03T04:48:06;100707.63;;;12.63;69.01
12781;BME280;6454;43.304;24.344;2023-05-03T04:50:34;100708.63;;;12.72;68.27
12781;BME280;6454;43.304;24.344;2023-05-03T04:53:01;100714.47;;;12.84;68.21
12781;BME280;6454;43.304;24.344;2023-05-03T04:55:28;100706.47;;;12.98;67.10
12781;BME280;6454;43.304;24.344;2023-05-03T04:57:55;100712.34;;;13.10;66.50
12781;BME280;6454;43.304;24.344;2023-05-03T05:00:22;100707.31;;;13.22;65.23
12781;BME280;6454;43.304;24.344;2023-05-03T05:02:49;100693.44;;;13.19;64.90
12781;BME280;6454;43.304;24.344;2023-05-03T05:05:16;100704.47;;;13.32;65.39
12781;BME280;6454;43.304;24.344;2023-05-03T05:07:44;100689.63;;;13.43;65.54
12781;BME280;6454;43.304;24.344;2023-05-03T05:10:11;100695.72;;;13.54;65.98
12781;BME280;6454;43.304;24.344;2023-05-03T05:12:39;100692.34;;;13.62;65.64
12781;BME280;6454;43.304;24.344;2023-05-03T05:15:06;100690.00;;;13.74;65.00
12781;BME280;6454;43.304;24.344;2023-05-03T05:17:33;100684.47;;;13.79;66.06
12781;BME280;6454;43.304;24.344;2023-05-03T05:20:00;100694.28;;;13.80;66.52
12781;BME280;6454;43.304;24.344;2023-05-03T05:22:28;100688.84;;;13.80;66.25
12781;BME280;6454;43.304;24.344;2023-05-03T05:24:56;100706.72;;;13.86;65.81
12781;BME280;6454;43.304;24.344;2023-05-03T05:27:23;100707.47;;;13.92;65.78
12781;BME280;6454;43.304;24.344;2023-05-03T05:29:50;100723.94;;;14.05;65.08
12781;BME280;6454;43.304;24.344;2023-05-03T05:32:17;100724.78;;;14.19;65.34
12781;BME280;6454;43.304;24.344;2023-05-03T05:34:43;100731.06;;;14.20;65.62
12781;BME280;6454;43.304;24.344;2023-05-03T05:37:15;100741.59;;;14.27;65.40
12781;BME280;6454;43.304;24.344;2023-05-03T05:39:42;100723.25;;;14.32;65.17
12781;BME280;6454;43.304;24.344;2023-05-03T05:42:10;100742.53;;;14.41;64.03
12781;BME280;6454;43.304;24.344;2023-05-03T05:44:37;100757.78;;;14.42;63.79
12781;BME280;6454;43.304;24.344;2023-05-03T05:47:04;100743.13;;;14.38;63.00
12781;BME280;6454;43.304;24.344;2023-05-03T05:49:31;100750.44;;;14.56;61.56
12781;BME280;6454;43.304;24.344;2023-05-03T05:51:57;100742.78;;;14.58;61.52
12781;BME280;6454;43.304;24.344;2023-05-03T05:54:24;100752.56;;;14.59;62.60
12781;BME280;6454;43.304;24.344;2023-05-03T05:56:51;100759.28;;;14.66;62.96
12781;BME280;6454;43.304;24.344;2023-05-03T05:59:19;100745.63;;;14.66;63.31
12781;BME280;6454;43.304;24.344;2023-05-03T06:01:46;100738.03;;;14.63;64.40
12781;BME280;6454;43.304;24.344;2023-05-03T06:04:13;100734.34;;;14.73;63.49
12781;BME280;6454;43.304;24.344;2023-05-03T06:06:40;100738.91;;;14.77;63.48
12781;BME280;6454;43.304;24.344;2023-05-03T06:09:07;100712.03;;;14.66;64.00
12781;BME280;6454;43.304;24.344;2023-05-03T06:11:34;100736.88;;;14.83;64.31
12781;BME280;6454;43.304;24.344;2023-05-03T06:14:02;100755.47;;;14.81;64.44
12781;BME280;6454;43.304;24.344;2023-05-03T06:16:35;100753.97;;;14.75;64.25
12781;BME280;6454;43.304;24.344;2023-05-03T06:19:02;100748.19;;;14.76;64.21
12781;BME280;6454;43.304;24.344;2023-05-03T06:21:29;100753.69;;;14.90;64.00
12781;BME280;6454;43.304;24.344;2023-05-03T06:23:56;100754.63;;;14.99;64.38
12781;BME280;6454;43.304;24.344;2023-05-03T06:26:23;100748.56;;;15.02;64.84
12781;BME280;6454;43.304;24.344;2023-05-03T06:28:49;100752.59;;;15.05;64.21
12781;BME280;6454;43.304;24.344;2023-05-03T06:31:16;100765.88;;;15.11;62.32
12781;BME280;6454;43.304;24.344;2023-05-03T06:33:45;100753.53;;;15.14;62.15
12781;BME280;6454;43.304;24.344;2023-05-03T06:36:12;100762.66;;;15.36;62.32
12781;BME280;6454;43.304;24.344;2023-05-03T06:38:38;100769.28;;;15.63;62.15
12781;BME280;6454;43.304;24.344;2023-05-03T06:41:05;100770.78;;;15.82;61.73
12781;BME280;6454;43.304;24.344;2023-05-03T06:43:32;100768.41;;;16.03;61.66
12781;BME280;6454;43.304;24.344;2023-05-03T06:45:59;100769.06;;;16.22;61.01
12781;BME280;6454;43.304;24.344;2023-05-03T06:48:26;100777.22;;;16.36;60.37
12781;BME280;6454;43.304;24.344;2023-05-03T06:50:55;100787.34;;;16.49;58.38
12781;BME280;6454;43.304;24.344;2023-05-03T06:53:22;100791.38;;;16.65;58.11
12781;BME280;6454;43.304;24.344;2023-05-03T06:55:48;100794.34;;;16.77;57.11
12781;BME280;6454;43.304;24.344;2023-05-03T06:58:15;100793.16;;;16.92;55.98
12781;BME280;6454;43.304;24.344;2023-05-03T07:00:42;100785.66;;;17.06;54.77
12781;BME280;6454;43.304;24.344;2023-05-03T07:03:09;100778.13;;;17.11;54.16
12781;BME280;6454;43.304;24.344;2023-05-03T07:05:35;100786.91;;;17.30;53.69
12781;BME280;6454;43.304;24.344;2023-05-03T07:08:04;100790.34;;;17.36;53.02
12781;BME280;6454;43.304;24.344;2023-05-03T07:10:30;100784.22;;;17.39;53.29
12781;BME280;6454;43.304;24.344;2023-05-03T07:12:57;100787.78;;;17.48;52.30
12781;BME280;6454;43.304;24.344;2023-05-03T07:15:24;100774.50;;;17.64;51.89
12781;BME280;6454;43.304;24.344;2023-05-03T07:17:51;100776.13;;;17.73;51.56
12781;BME280;6454;43.304;24.344;2023-05-03T07:20:17;100767.94;;;17.82;51.21
12781;BME280;6454;43.304;24.344;2023-05-03T07:22:44;100767.47;;;17.88;50.47
12781;BME280;6454;43.304;24.344;2023-05-03T07:25:13;100757.28;;;17.97;49.28
12781;BME280;6454;43.304;24.344;2023-05-03T07:27:42;100761.19;;;18.14;47.01
12781;BME280;6454;43.304;24.344;2023-05-03T07:30:09;100760.38;;;18.13;47.47
12781;BME280;6454;43.304;24.344;2023-05-03T07:32:36;100757.34;;;18.32;47.42
12781;BME280;6454;43.304;24.344;2023-05-03T07:35:03;100752.81;;;18.44;45.10
12781;BME280;6454;43.304;24.344;2023-05-03T07:37:30;100769.00;;;18.54;44.91
12781;BME280;6454;43.304;24.344;2023-05-03T07:39:56;100758.47;;;18.65;44.57
12781;BME280;6454;43.304;24.344;2023-05-03T07:42:25;100770.56;;;18.81;44.00
12781;BME280;6454;43.304;24.344;2023-05-03T07:44:51;100759.03;;;19.05;42.28
12781;BME280;6454;43.304;24.344;2023-05-03T07:47:19;100753.53;;;19.05;42.35
12781;BME280;6454;43.304;24.344;2023-05-03T07:49:46;100764.34;;;19.18;43.06
12781;BME280;6454;43.304;24.344;2023-05-03T07:52:15;100763.00;;;19.24;45.22
12781;BME280;6454;43.304;24.344;2023-05-03T07:54:42;100754.31;;;19.14;45.46
12781;BME280;6454;43.304;24.344;2023-05-03T07:57:10;100750.41;;;19.15;45.68
12781;BME280;6454;43.304;24.344;2023-05-03T07:59:38;100770.41;;;19.33;47.60
12781;BME280;6454;43.304;24.344;2023-05-03T08:02:05;100755.25;;;19.26;46.37
12781;BME280;6454;43.304;24.344;2023-05-03T08:04:32;100758.59;;;19.32;46.77
12781;BME280;6454;43.304;24.344;2023-05-03T08:06:59;100749.56;;;19.32;46.30
12781;BME280;6454;43.304;24.344;2023-05-03T08:09:26;100757.13;;;19.35;46.54
12781;BME280;6454;43.304;24.344;2023-05-03T08:11:53;100754.09;;;19.27;46.78
12781;BME280;6454;43.304;24.344;2023-05-03T08:14:20;100752.06;;;19.07;46.34
12781;BME280;6454;43.304;24.344;2023-05-03T08:16:48;100750.75;;;19.13;46.25
12781;BME280;6454;43.304;24.344;2023-05-03T08:19:15;100749.00;;;19.09;45.72
12781;BME280;6454;43.304;24.344;2023-05-03T08:21:42;100748.72;;;19.02;46.04
12781;BME280;6454;43.304;24.344;2023-05-03T08:24:11;100747.91;;;19.01;46.94
12781;BME280;6454;43.304;24.344;2023-05-03T08:26:38;100746.91;;;18.97;46.37
12781;BME280;6454;43.304;24.344;2023-05-03T08:29:05;100734.97;;;18.93;45.82
12781;BME280;6454;43.304;24.344;2023-05-03T08:31:32;100746.13;;;18.88;45.88
12781;BME280;6454;43.304;24.344;2023-05-03T08:34:00;100740.00;;;18.83;46.72
12781;BME280;6454;43.304;24.344;2023-05-03T08:36:28;100728.88;;;18.79;46.91
12781;BME280;6454;43.304;24.344;2023-05-03T08:38:56;100732.28;;;18.76;46.04
12781;BME280;6454;43.304;24.344;2023-05-03T08:41:27;100724.84;;;18.68;45.86
12781;BME280;6454;43.304;24.344;2023-05-03T08:43:55;100725.81;;;18.72;45.08
12781;BME280;6454;43.304;24.344;2023-05-03T08:46:22;100718.06;;;18.65;44.23
12781;BME280;6454;43.304;24.344;2023-05-03T08:48:51;100723.38;;;18.45;45.51
12781;BME280;6454;43.304;24.344;2023-05-03T08:51:20;100728.88;;;18.45;47.39
12781;BME280;6454;43.304;24.344;2023-05-03T08:53:47;100734.69;;;18.43;47.27
12781;BME280;6454;43.304;24.344;2023-05-03T08:56:17;100732.13;;;18.38;46.51
12781;BME280;6454;43.304;24.344;2023-05-03T08:58:46;100724.06;;;18.25;46.30
12781;BME280;6454;43.304;24.344;2023-05-03T09:01:13;100727.94;;;18.24;47.39
12781;BME280;6454;43.304;24.344;2023-05-03T09:03:47;100677.53;;;17.94;47.71
12781;BME280;6454;43.304;24.344;2023-05-03T09:06:19;100719.88;;;18.27;47.07
12781;BME280;6454;43.304;24.344;2023-05-03T09:08:46;100720.00;;;18.31;47.52
12781;BME280;6454;43.304;24.344;2023-05-03T09:11:21;100724.41;;;18.49;47.78
12781;BME280;6454;43.304;24.344;2023-05-03T09:13:49;100719.22;;;18.56;46.14
12781;BME280;6454;43.304;24.344;2023-05-03T09:16:23;100716.56;;;18.85;48.14
12781;BME280;6454;43.304;24.344;2023-05-03T09:18:58;100715.81;;;19.14;49.28
12781;BME280;6454;43.304;24.344;2023-05-03T09:21:27;100708.66;;;19.21;46.85
12781;BME280;6454;43.304;24.344;2023-05-03T09:23:55;100713.47;;;19.33;47.04
12781;BME280;6454;43.304;24.344;2023-05-03T09:26:30;100725.56;;;19.49;46.75
12781;BME280;6454;43.304;24.344;2023-05-03T09:28:58;100720.47;;;19.60;44.84
12781;BME280;6454;43.304;24.344;2023-05-03T09:31:26;100709.84;;;19.50;45.51
12781;BME280;6454;43.304;24.344;2023-05-03T09:33:54;100712.16;;;19.68;46.35
12781;BME280;6454;43.304;24.344;2023-05-03T09:36:20;100706.59;;;19.77;43.71
12781;BME280;6454;43.304;24.344;2023-05-03T09:38:49;100687.75;;;19.87;44.37
12781;BME280;6454;43.304;24.344;2023-05-03T09:41:25;100701.53;;;20.29;45.24
12781;BME280;6454;43.304;24.344;2023-05-03T09:43:52;100706.28;;;20.40;42.19
12781;BME280;6454;43.304;24.344;2023-05-03T09:46:21;100697.97;;;20.28;42.53
12781;BME280;6454;43.304;24.344;2023-05-03T09:48:49;100702.22;;;20.26;44.63
12781;BME280;6454;43.304;24.344;2023-05-03T09:51:18;100695.69;;;20.30;44.50
12781;BME280;6454;43.304;24.344;2023-05-03T09:53:46;100693.06;;;20.34;44.46
12781;BME280;6454;43.304;24.344;2023-05-03T09:56:16;100700.28;;;20.26;42.72
12781;BME280;6454;43.304;24.344;2023-05-03T09:58:45;100697.31;;;20.31;43.96
12781;BME280;6454;43.304;24.344;2023-05-03T10:01:13;100688.03;;;20.36;42.96
12781;BME280;6454;43.304;24.344;2023-05-03T10:03:41;100683.13;;;20.41;43.25
12781;BME280;6454;43.304;24.344;2023-05-03T10:06:21;100657.06;;;20.51;42.64
12781;BME280;6454;43.304;24.344;2023-05-03T10:08:52;100684.16;;;20.94;41.77
12781;BME280;6454;43.304;24.344;2023-05-03T10:11:23;100688.28;;;21.00;38.70
12781;BME280;6454;43.304;24.344;2023-05-03T10:13:52;100692.72;;;21.13;39.27
12781;BME280;6454;43.304;24.344;2023-05-03T10:16:22;100675.34;;;21.12;38.00
12781;BME280;6454;43.304;24.344;2023-05-03T10:18:58;100676.84;;;21.22;36.10
12781;BME280;6454;43.304;24.344;2023-05-03T10:21:45;100675.03;;;21.26;37.05
12781;BME280;6454;43.304;24.344;2023-05-03T10:24:14;100680.31;;;21.43;37.66
12781;BME280;6454;43.304;24.344;2023-05-03T10:26:44;100670.59;;;21.73;37.85
12781;BME280;6454;43.304;24.344;2023-05-03T10:29:43;100662.31;;;21.61;35.97
12781;BME280;6454;43.304;24.344;2023-05-03T10:32:33;100671.09;;;21.63;36.79
12781;BME280;6454;43.304;24.344;2023-05-03T10:35:03;100671.78;;;21.60;38.08
12781;BME280;6454;43.304;24.344;2023-05-03T10:37:32;100662.78;;;21.75;38.75
12781;BME280;6454;43.304;24.344;2023-05-03T10:40:10;100658.16;;;21.79;38.94
12781;BME280;6454;43.304;24.344;2023-05-03T10:42:44;100657.47;;;21.82;39.86
12781;BME280;6454;43.304;24.344;2023-05-03T10:45:22;100652.13;;;22.02;40.06
12781;BME280;6454;43.304;24.344;2023-05-03T10:48:14;100653.59;;;22.11;38.51
12781;BME280;6454;43.304;24.344;2023-05-03T10:50:45;100641.38;;;22.12;38.69
12781;BME280;6454;43.304;24.344;2023-05-03T10:53:34;100636.34;;;22.30;39.58
12781;BME280;6454;43.304;24.344;2023-05-03T10:56:01;100643.50;;;22.46;40.44
12781;BME280;6454;43.304;24.344;2023-05-03T10:58:36;100650.72;;;22.35;39.79
12781;BME280;6454;43.304;24.344;2023-05-03T11:01:04;100651.47;;;22.48;40.57
12781;BME280;6454;43.304;24.344;2023-05-03T11:03:50;100643.03;;;22.29;41.37
12781;BME280;6454;43.304;24.344;2023-05-03T11:06:37;100648.16;;;22.15;41.46
12781;BME280;6454;43.304;24.344;2023-05-03T11:09:07;100630.59;;;22.07;41.78
12781;BME280;6454;43.304;24.344;2023-05-03T11:11:38;100636.25;;;22.26;39.80
12781;BME280;6454;43.304;24.344;2023-05-03T11:14:07;100632.19;;;22.36;40.39
12781;BME280;6454;43.304;24.344;2023-05-03T11:16:34;100621.31;;;22.43;39.80
12781;BME280;6454;43.304;24.344;2023-05-03T11:19:05;100618.13;;;22.41;40.06
12781;BME280;6454;43.304;24.344;2023-05-03T11:21:31;100620.06;;;22.56;40.82
12781;BME280;6454;43.304;24.344;2023-05-03T11:23:59;100624.22;;;22.62;40.14
12781;BME280;6454;43.304;24.344;2023-05-03T11:26:26;100621.50;;;22.50;40.73
12781;BME280;6454;43.304;24.344;2023-05-03T11:28:53;100620.00;;;22.53;40.99
12781;BME280;6454;43.304;24.344;2023-05-03T11:31:21;100618.94;;;22.57;40.90
12781;BME280;6454;43.304;24.344;2023-05-03T11:33:49;100616.13;;;22.26;40.03
12781;BME280;6454;43.304;24.344;2023-05-03T11:36:16;100601.25;;;22.03;40.71
12781;BME280;6454;43.304;24.344;2023-05-03T11:38:42;100607.28;;;21.93;41.92
12781;BME280;6454;43.304;24.344;2023-05-03T11:41:15;100607.09;;;21.86;42.82
12781;BME280;6454;43.304;24.344;2023-05-03T11:43:42;100599.00;;;21.80;43.07
12781;BME280;6454;43.304;24.344;2023-05-03T11:46:10;100599.69;;;21.77;42.90
12781;BME280;6454;43.304;24.344;2023-05-03T11:48:39;100608.22;;;21.72;42.76
12781;BME280;6454;43.304;24.344;2023-05-03T11:51:06;100606.63;;;21.71;43.98
12781;BME280;6454;43.304;24.344;2023-05-03T11:53:36;100609.84;;;21.73;44.86
12781;BME280;6454;43.304;24.344;2023-05-03T11:56:06;100608.94;;;21.69;44.66
12781;BME280;6454;43.304;24.344;2023-05-03T11:58:33;100602.06;;;21.63;45.87
12781;BME280;6454;43.304;24.344;2023-05-03T12:01:00;100595.59;;;21.59;45.40
12781;BME280;6454;43.304;24.344;2023-05-03T12:03:29;100583.81;;;21.74;47.30
12781;BME280;6454;43.304;24.344;2023-05-03T12:05:58;100583.38;;;21.72;46.54
12781;BME280;6454;43.304;24.344;2023-05-03T12:08:27;100516.34;;;21.20;46.14
12781;BME280;6454;43.304;24.344;2023-05-03T12:10:55;100591.25;;;21.58;45.49
12781;BME280;6454;43.304;24.344;2023-05-03T12:13:26;100582.31;;;21.89;46.33
12781;BME280;6454;43.304;24.344;2023-05-03T12:15:55;100537.78;;;21.91;45.52
12781;BME280;6454;43.304;24.344;2023-05-03T12:18:23;100563.94;;;22.24;45.57
12781;BME280;6454;43.304;24.344;2023-05-03T12:20:54;100534.31;;;22.09;45.57
12781;BME280;6454;43.304;24.344;2023-05-03T12:23:24;100565.75;;;22.32;46.15
12781;BME280;6454;43.304;24.344;2023-05-03T12:25:51;100553.44;;;22.30;43.58
12781;BME280;6454;43.304;24.344;2023-05-03T12:28:18;100541.81;;;22.09;42.97
12781;BME280;6454;43.304;24.344;2023-05-03T12:30:45;100547.13;;;22.02;44.19
12781;BME280;6454;43.304;24.344;2023-05-03T12:33:12;100533.38;;;22.17;44.53
12781;BME280;6454;43.304;24.344;2023-05-03T12:35:39;100532.84;;;22.27;43.66
12781;BME280;6454;43.304;24.344;2023-05-03T12:38:06;100539.63;;;22.30;44.68
12781;BME280;6454;43.304;24.344;2023-05-03T12:40:35;100527.50;;;22.34;43.44
12781;BME280;6454;43.304;24.344;2023-05-03T12:43:02;100520.09;;;22.38;44.81
12781;BME280;6454;43.304;24.344;2023-05-03T13:05:40;100493.50;;;22.03;45.54
12781;BME280;6454;43.304;24.344;2023-05-03T13:08:07;100484.78;;;22.01;43.94
12781;BME280;6454;43.304;24.344;2023-05-03T13:10:35;100479.31;;;22.04;44.15
12781;BME280;6454;43.304;24.344;2023-05-03T13:13:02;100475.16;;;22.10;45.10
12781;BME280;6454;43.304;24.344;2023-05-03T13:15:29;100479.44;;;22.39;44.67
12781;BME280;6454;43.304;24.344;2023-05-03T13:17:56;100477.53;;;22.74;44.06